createdAt,value
2018-02-10T00:00:41.550Z,1011.61
2018-02-10T00:01:41.462Z,1011.55
2018-02-10T00:02:41.479Z,1011.61
2018-02-10T00:03:41.482Z,1011.64
2018-02-10T00:04:41.501Z,1011.62
2018-02-10T00:05:41.508Z,1011.61
2018-02-10T00:06:41.524Z,1011.63
2018-02-10T00:07:41.539Z,1011.63
2018-02-10T00:08:41.542Z,1011.65
2018-02-10T00:09:41.560Z,1011.65
2018-02-10T00:10:41.570Z,1011.65
2018-02-10T00:11:41.592Z,1011.62
2018-02-10T00:12:41.588Z,1011.64
2018-02-10T00:14:41.618Z,1011.69
2018-02-10T00:15:41.623Z,1011.69
2018-02-10T00:16:41.637Z,1011.7
2018-02-10T00:17:41.650Z,1011.73
2018-02-10T00:18:41.665Z,1011.67
2018-02-10T00:19:41.675Z,1011.72
2018-02-10T00:20:41.684Z,1011.7
2018-02-10T00:21:41.701Z,1011.66
2018-02-10T00:22:41.710Z,1011.68
2018-02-10T00:23:41.726Z,1011.68
2018-02-10T00:24:41.740Z,1011.7
2018-02-10T00:25:41.747Z,1011.66
2018-02-10T00:26:41.754Z,1011.71
2018-02-10T00:27:41.777Z,1011.71
2018-02-10T00:28:41.790Z,1011.66
2018-02-10T00:30:41.812Z,1011.72
2018-02-10T00:31:41.821Z,1011.73
2018-02-10T00:32:41.827Z,1011.69
2018-02-10T00:33:41.846Z,1011.7
2018-02-10T00:34:41.857Z,1011.71
2018-02-10T00:35:41.871Z,1011.76
2018-02-10T00:36:41.880Z,1011.68
2018-02-10T00:37:41.892Z,1011.71
2018-02-10T00:38:41.906Z,1011.72
2018-02-10T00:39:41.915Z,1011.74
2018-02-10T00:40:41.926Z,1011.77
2018-02-10T00:41:41.942Z,1011.75
2018-02-10T00:42:41.951Z,1011.77
2018-02-10T00:43:41.966Z,1011.77
2018-02-10T00:44:41.983Z,1011.76
2018-02-10T00:46:42.000Z,1011.79
2018-02-10T00:47:42.012Z,1011.81
2018-02-10T00:48:42.021Z,1011.87
2018-02-10T00:49:42.041Z,1011.84
2018-02-10T00:50:42.054Z,1011.84
2018-02-10T00:51:42.064Z,1011.85
2018-02-10T00:52:42.076Z,1011.86
2018-02-10T00:53:42.086Z,1011.82
2018-02-10T00:54:42.097Z,1011.85
2018-02-10T00:55:42.105Z,1011.83
2018-02-10T00:56:42.115Z,1011.85
2018-02-10T00:57:42.132Z,1011.84
2018-02-10T00:58:42.150Z,1011.82
2018-02-10T00:59:42.163Z,1011.8
2018-02-10T01:01:42.183Z,1011.84
2018-02-10T01:02:42.195Z,1011.82
2018-02-10T01:03:42.204Z,1011.79
2018-02-10T01:04:42.221Z,1011.82
2018-02-10T01:05:42.238Z,1011.77
2018-02-10T01:06:42.238Z,1011.77
2018-02-10T01:07:42.255Z,1011.76
2018-02-10T01:08:42.267Z,1011.75
2018-02-10T01:09:42.279Z,1011.73
2018-02-10T01:10:42.290Z,1011.75
2018-02-10T01:11:42.303Z,1011.71
2018-02-10T01:12:42.310Z,1011.71
2018-02-10T01:13:42.323Z,1011.73
2018-02-10T01:14:42.335Z,1011.75
2018-02-10T01:15:42.350Z,1011.74
2018-02-10T01:16:42.362Z,1011.76
2018-02-10T01:17:42.373Z,1011.76
2018-02-10T01:18:42.383Z,1011.73
2018-02-10T01:19:42.395Z,1011.75
2018-02-10T01:20:42.404Z,1011.76
2018-02-10T01:21:42.427Z,1011.72
2018-02-10T01:22:42.429Z,1011.74
2018-02-10T01:23:42.444Z,1011.76
2018-02-10T01:24:42.458Z,1011.73
2018-02-10T01:25:42.471Z,1011.73
2018-02-10T01:26:42.487Z,1011.75
2018-02-10T01:27:42.494Z,1011.74
2018-02-10T01:28:42.509Z,1011.78
2018-02-10T01:29:42.519Z,1011.81
2018-02-10T01:30:42.531Z,1011.81
2018-02-10T01:31:42.541Z,1011.8
2018-02-10T01:33:42.567Z,1011.82
2018-02-10T01:34:42.577Z,1011.8
2018-02-10T01:35:42.594Z,1011.77
2018-02-10T01:36:42.603Z,1011.78
2018-02-10T01:37:42.616Z,1011.77
2018-02-10T01:38:42.622Z,1011.74
2018-02-10T01:39:42.640Z,1011.76
2018-02-10T01:40:42.650Z,1011.74
2018-02-10T01:41:42.660Z,1011.73
2018-02-10T01:42:42.672Z,1011.75
2018-02-10T01:43:42.683Z,1011.75
2018-02-10T01:44:42.699Z,1011.74
2018-02-10T01:45:42.705Z,1011.75
2018-02-10T01:46:42.720Z,1011.78
2018-02-10T01:47:42.735Z,1011.78
2018-02-10T01:49:42.761Z,1011.73
2018-02-10T01:50:42.769Z,1011.73
2018-02-10T01:51:42.783Z,1011.73
2018-02-10T01:52:42.799Z,1011.74
2018-02-10T01:53:42.811Z,1011.78
2018-02-10T01:54:42.821Z,1011.73
2018-02-10T01:55:42.827Z,1011.74
2018-02-10T01:56:42.841Z,1011.73
2018-02-10T01:57:42.849Z,1011.79
2018-02-10T01:58:42.867Z,1011.76
2018-02-10T01:59:42.874Z,1011.78
2018-02-10T02:00:42.892Z,1011.75
2018-02-10T02:01:42.904Z,1011.78
2018-02-10T02:02:42.914Z,1011.74
2018-02-10T02:03:42.924Z,1011.74
2018-02-10T02:05:42.949Z,1011.77
2018-02-10T02:06:42.963Z,1011.74
2018-02-10T02:07:42.977Z,1011.74
2018-02-10T02:08:42.984Z,1011.75
2018-02-10T02:09:42.999Z,1011.73
2018-02-10T02:10:43.006Z,1011.74
2018-02-10T02:11:43.019Z,1011.76
2018-02-10T02:12:43.034Z,1011.74
2018-02-10T02:13:43.047Z,1011.74
2018-02-10T02:14:43.057Z,1011.72
2018-02-10T02:15:43.071Z,1011.69
2018-02-10T02:16:43.086Z,1011.72
2018-02-10T02:17:43.090Z,1011.67
2018-02-10T02:18:43.106Z,1011.72
2018-02-10T02:19:43.115Z,1011.68
2018-02-10T02:21:43.148Z,1011.68
2018-02-10T02:22:43.151Z,1011.69
2018-02-10T02:23:43.171Z,1011.67
2018-02-10T02:24:43.175Z,1011.68
2018-02-10T02:25:43.195Z,1011.63
2018-02-10T02:26:43.205Z,1011.66
2018-02-10T02:27:43.210Z,1011.62
2018-02-10T02:28:43.229Z,1011.64
2018-02-10T02:29:43.242Z,1011.64
2018-02-10T02:30:43.254Z,1011.65
2018-02-10T02:31:43.259Z,1011.68
2018-02-10T02:32:43.273Z,1011.67
2018-02-10T02:33:43.293Z,1011.65
2018-02-10T02:34:43.304Z,1011.63
2018-02-10T02:36:43.325Z,1011.61
2018-02-10T02:37:43.343Z,1011.63
2018-02-10T02:38:43.351Z,1011.64
2018-02-10T02:39:43.359Z,1011.65
2018-02-10T02:40:43.372Z,1011.6
2018-02-10T02:41:43.381Z,1011.62
2018-02-10T02:42:43.399Z,1011.58
2018-02-10T02:43:43.410Z,1011.61
2018-02-10T02:44:43.424Z,1011.61
2018-02-10T02:45:43.436Z,1011.6
2018-02-10T02:46:43.445Z,1011.56
2018-02-10T02:47:43.456Z,1011.55
2018-02-10T02:48:43.464Z,1011.55
2018-02-10T02:49:43.484Z,1011.57
2018-02-10T02:50:43.496Z,1011.53
2018-02-10T02:51:43.508Z,1011.56
2018-02-10T02:52:43.513Z,1011.52
2018-02-10T02:53:43.532Z,1011.48
2018-02-10T02:54:43.548Z,1011.52
2018-02-10T02:55:43.555Z,1011.51
2018-02-10T02:56:43.567Z,1011.55
2018-02-10T02:57:43.573Z,1011.53
2018-02-10T02:58:43.595Z,1011.52
2018-02-10T02:59:43.601Z,1011.54
2018-02-10T03:00:43.610Z,1011.54
2018-02-10T03:01:43.626Z,1011.53
2018-02-10T03:02:43.644Z,1011.54
2018-02-10T03:03:43.651Z,1011.54
2018-02-10T03:04:43.658Z,1011.53
2018-02-10T03:05:43.678Z,1011.54
2018-02-10T03:06:43.689Z,1011.49
2018-02-10T03:08:43.709Z,1011.47
2018-02-10T03:09:43.722Z,1011.49
2018-02-10T03:10:43.737Z,1011.48
2018-02-10T03:11:43.749Z,1011.46
2018-02-10T03:12:43.759Z,1011.46
2018-02-10T03:13:43.771Z,1011.44
2018-02-10T03:14:43.784Z,1011.43
2018-02-10T03:15:43.795Z,1011.41
2018-02-10T03:16:43.802Z,1011.42
2018-02-10T03:17:43.822Z,1011.42
2018-02-10T03:18:43.843Z,1011.45
2018-02-10T03:19:43.840Z,1011.42
2018-02-10T03:20:43.858Z,1011.42
2018-02-10T03:21:43.866Z,1011.4
2018-02-10T03:22:43.881Z,1011.41
2018-02-10T03:24:43.899Z,1011.39
2018-02-10T03:25:43.917Z,1011.41
2018-02-10T03:26:43.927Z,1011.39
2018-02-10T03:27:43.939Z,1011.39
2018-02-10T03:28:43.945Z,1011.37
2018-02-10T03:29:43.961Z,1011.41
2018-02-10T03:30:43.984Z,1011.41
2018-02-10T03:31:43.983Z,1011.37
2018-02-10T03:32:43.996Z,1011.34
2018-02-10T03:33:44.012Z,1011.32
2018-02-10T03:34:44.028Z,1011.4
2018-02-10T03:35:44.041Z,1011.38
2018-02-10T03:36:44.045Z,1011.34
2018-02-10T03:37:44.059Z,1011.36
2018-02-10T03:38:44.075Z,1011.32
2018-02-10T03:40:44.090Z,1011.38
2018-02-10T03:41:44.103Z,1011.33
2018-02-10T03:42:44.123Z,1011.36
2018-02-10T03:43:44.131Z,1011.34
2018-02-10T03:44:44.139Z,1011.35
2018-02-10T03:45:44.160Z,1011.31
2018-02-10T03:46:44.170Z,1011.32
2018-02-10T03:47:44.176Z,1011.34
2018-02-10T03:48:44.185Z,1011.41
2018-02-10T03:49:44.204Z,1011.39
2018-02-10T03:50:44.212Z,1011.37
2018-02-10T03:51:44.228Z,1011.39
2018-02-10T03:52:44.240Z,1011.39
2018-02-10T03:53:44.248Z,1011.35
2018-02-10T03:54:44.260Z,1011.34
2018-02-10T03:56:44.282Z,1011.36
2018-02-10T03:57:44.296Z,1011.34
2018-02-10T03:58:44.311Z,1011.39
2018-02-10T03:59:44.320Z,1011.36
2018-02-10T04:00:44.432Z,1011.37
2018-02-10T04:01:44.345Z,1011.36
2018-02-10T04:02:44.359Z,1011.4
2018-02-10T04:03:44.375Z,1011.39
2018-02-10T04:04:44.382Z,1011.39
2018-02-10T04:05:44.396Z,1011.41
2018-02-10T04:06:44.407Z,1011.41
2018-02-10T04:07:44.412Z,1011.42
2018-02-10T04:08:44.428Z,1011.45
2018-02-10T04:09:44.439Z,1011.42
2018-02-10T04:11:44.464Z,1011.4
2018-02-10T04:12:44.473Z,1011.42
2018-02-10T04:13:44.484Z,1011.43
2018-02-10T04:14:44.499Z,1011.41
2018-02-10T04:15:44.522Z,1011.41
2018-02-10T04:16:44.524Z,1011.42
2018-02-10T04:17:44.537Z,1011.43
2018-02-10T04:18:44.551Z,1011.45
2018-02-10T04:19:44.566Z,1011.47
2018-02-10T04:20:44.577Z,1011.49
2018-02-10T04:21:44.590Z,1011.48
2018-02-10T04:22:44.598Z,1011.49
2018-02-10T04:23:44.608Z,1011.5
2018-02-10T04:24:44.622Z,1011.5
2018-02-10T04:25:44.630Z,1011.51
2018-02-10T04:26:44.642Z,1011.51
2018-02-10T04:27:44.652Z,1011.47
2018-02-10T04:28:44.664Z,1011.48
2018-02-10T04:29:44.686Z,1011.42
2018-02-10T04:30:44.698Z,1011.43
2018-02-10T04:31:44.704Z,1011.44
2018-02-10T04:32:44.721Z,1011.44
2018-02-10T04:33:44.728Z,1011.45
2018-02-10T04:34:44.738Z,1011.43
2018-02-10T04:35:44.748Z,1011.42
2018-02-10T04:36:44.762Z,1011.38
2018-02-10T04:37:44.781Z,1011.41
2018-02-10T04:38:44.789Z,1011.38
2018-02-10T04:39:44.803Z,1011.41
2018-02-10T04:40:44.811Z,1011.42
2018-02-10T04:41:44.822Z,1011.42
2018-02-10T04:43:44.847Z,1011.44
2018-02-10T04:44:44.861Z,1011.42
2018-02-10T04:45:44.868Z,1011.47
2018-02-10T04:46:44.886Z,1011.43
2018-02-10T04:47:44.898Z,1011.48
2018-02-10T04:48:44.912Z,1011.47
2018-02-10T04:49:44.916Z,1011.51
2018-02-10T04:50:44.934Z,1011.49
2018-02-10T04:51:44.942Z,1011.41
2018-02-10T04:52:44.962Z,1011.45
2018-02-10T04:53:44.974Z,1011.43
2018-02-10T04:54:45.078Z,1011.42
2018-02-10T04:55:44.993Z,1011.41
2018-02-10T04:56:45.010Z,1011.42
2018-02-10T04:57:45.021Z,1011.41
2018-02-10T04:59:45.043Z,1011.38
2018-02-10T05:00:45.055Z,1011.4
2018-02-10T05:01:45.064Z,1011.42
2018-02-10T05:02:45.074Z,1011.42
2018-02-10T05:03:45.090Z,1011.44
2018-02-10T05:04:45.107Z,1011.42
2018-02-10T05:05:45.110Z,1011.45
2018-02-10T05:06:45.121Z,1011.45
2018-02-10T05:07:45.139Z,1011.42
2018-02-10T05:08:45.151Z,1011.45
2018-02-10T05:09:45.163Z,1011.46
2018-02-10T05:10:45.173Z,1011.47
2018-02-10T05:11:45.183Z,1011.49
2018-02-10T05:12:45.199Z,1011.48
2018-02-10T05:13:45.206Z,1011.47
2018-02-10T05:15:45.234Z,1011.51
2018-02-10T05:16:45.249Z,1011.52
2018-02-10T05:17:45.253Z,1011.51
2018-02-10T05:18:45.268Z,1011.52
2018-02-10T05:19:45.276Z,1011.45
2018-02-10T05:20:45.292Z,1011.51
2018-02-10T05:21:45.305Z,1011.52
2018-02-10T05:22:45.332Z,1011.46
2018-02-10T05:23:45.330Z,1011.46
2018-02-10T05:24:45.343Z,1011.52
2018-02-10T05:25:45.353Z,1011.49
2018-02-10T05:26:45.363Z,1011.51
2018-02-10T05:27:45.376Z,1011.54
2018-02-10T05:28:45.387Z,1011.51
2018-02-10T05:29:45.406Z,1011.51
2018-02-10T05:31:45.420Z,1011.54
2018-02-10T05:32:45.434Z,1011.53
2018-02-10T05:33:45.444Z,1011.51
2018-02-10T05:34:45.464Z,1011.54
2018-02-10T05:35:45.471Z,1011.52
2018-02-10T05:36:45.486Z,1011.52
2018-02-10T05:37:45.496Z,1011.52
2018-02-10T05:38:45.510Z,1011.54
2018-02-10T05:39:45.521Z,1011.51
2018-02-10T05:40:45.528Z,1011.53
2018-02-10T05:41:45.549Z,1011.57
2018-02-10T05:42:45.553Z,1011.61
2018-02-10T05:43:45.574Z,1011.61
2018-02-10T05:44:45.588Z,1011.65
2018-02-10T05:46:45.608Z,1011.69
2018-02-10T05:47:45.616Z,1011.67
2018-02-10T05:48:45.632Z,1011.66
2018-02-10T05:49:45.646Z,1011.67
2018-02-10T05:50:45.657Z,1011.68
2018-02-10T05:51:45.664Z,1011.73
2018-02-10T05:52:45.674Z,1011.73
2018-02-10T05:53:45.694Z,1011.72
2018-02-10T05:54:45.702Z,1011.7
2018-02-10T05:55:45.716Z,1011.72
2018-02-10T05:56:45.728Z,1011.75
2018-02-10T05:57:45.741Z,1011.74
2018-02-10T05:58:45.752Z,1011.75
2018-02-10T05:59:45.762Z,1011.74
2018-02-10T06:00:45.778Z,1011.78
2018-02-10T06:01:45.784Z,1011.73
2018-02-10T06:02:45.794Z,1011.73
2018-02-10T06:03:45.841Z,1011.76
2018-02-10T06:04:45.822Z,1011.74
2018-02-10T06:05:45.830Z,1011.76
2018-02-10T06:06:45.844Z,1011.77
2018-02-10T06:07:45.863Z,1011.8
2018-02-10T06:08:45.873Z,1011.77
2018-02-10T06:09:45.882Z,1011.77
2018-02-10T06:10:45.933Z,1011.75
2018-02-10T06:11:45.904Z,1011.74
2018-02-10T06:12:45.922Z,1011.76
2018-02-10T06:13:45.933Z,1011.78
2018-02-10T06:14:45.945Z,1011.75
2018-02-10T06:15:45.958Z,1011.76
2018-02-10T06:16:45.973Z,1011.79
2018-02-10T06:18:45.994Z,1011.78
2018-02-10T06:19:46.004Z,1011.79
2018-02-10T06:20:46.013Z,1011.82
2018-02-10T06:21:46.024Z,1011.84
2018-02-10T06:22:46.037Z,1011.82
2018-02-10T06:23:46.048Z,1011.84
2018-02-10T06:24:46.069Z,1011.87
2018-02-10T06:25:46.081Z,1011.9
2018-02-10T06:26:46.090Z,1011.91
2018-02-10T06:27:46.102Z,1011.93
2018-02-10T06:28:46.111Z,1011.96
2018-02-10T06:29:46.122Z,1011.91
2018-02-10T06:30:46.136Z,1011.95
2018-02-10T06:31:46.149Z,1011.97
2018-02-10T06:32:46.157Z,1011.94
2018-02-10T06:34:46.180Z,1011.93
2018-02-10T06:35:46.192Z,1011.98
2018-02-10T06:36:46.204Z,1011.94
2018-02-10T06:37:46.218Z,1011.94
2018-02-10T06:38:46.238Z,1011.97
2018-02-10T06:39:46.245Z,1011.95
2018-02-10T06:40:46.261Z,1011.92
2018-02-10T06:41:46.269Z,1011.95
2018-02-10T06:42:46.284Z,1011.95
2018-02-10T06:43:46.293Z,1011.92
2018-02-10T06:44:46.308Z,1011.91
2018-02-10T06:45:46.324Z,1011.92
2018-02-10T06:46:46.334Z,1011.9
2018-02-10T06:47:46.343Z,1011.95
2018-02-10T06:48:46.354Z,1011.96
2018-02-10T06:50:46.378Z,1011.97
2018-02-10T06:51:46.394Z,1011.96
2018-02-10T06:52:46.400Z,1011.98
2018-02-10T06:53:46.413Z,1011.98
2018-02-10T06:54:46.426Z,1011.94
2018-02-10T06:55:46.434Z,1011.93
2018-02-10T06:56:46.455Z,1011.97
2018-02-10T06:57:46.458Z,1011.95
2018-02-10T06:58:46.474Z,1011.96
2018-02-10T06:59:46.490Z,1011.98
2018-02-10T07:00:46.498Z,1012.02
2018-02-10T07:01:46.513Z,1012.01
2018-02-10T07:02:46.529Z,1012.01
2018-02-10T07:03:46.535Z,1012.01
2018-02-10T07:04:46.543Z,1012.02
2018-02-10T07:06:46.574Z,1012.04
2018-02-10T07:07:46.582Z,1012.1
2018-02-10T07:08:46.598Z,1012.08
2018-02-10T07:09:46.609Z,1012.08
2018-02-10T07:10:46.619Z,1012.12
2018-02-10T07:11:46.632Z,1012.14
2018-02-10T07:12:46.685Z,1012.1
2018-02-10T07:13:46.661Z,1012.13
2018-02-10T07:14:46.670Z,1012.15
2018-02-10T07:15:46.677Z,1012.16
2018-02-10T07:16:46.696Z,1012.16
2018-02-10T07:17:46.703Z,1012.13
2018-02-10T07:18:46.723Z,1012.13
2018-02-10T07:19:46.734Z,1012.14
2018-02-10T07:21:46.752Z,1012.12
2018-02-10T07:22:46.769Z,1012.14
2018-02-10T07:23:46.782Z,1012.12
2018-02-10T07:24:46.792Z,1012.14
2018-02-10T07:25:46.806Z,1012.11
2018-02-10T07:26:46.812Z,1012.14
2018-02-10T07:27:46.832Z,1012.14
2018-02-10T07:28:46.847Z,1012.16
2018-02-10T07:29:46.855Z,1012.14
2018-02-10T07:30:46.860Z,1012.16
2018-02-10T07:31:46.877Z,1012.13
2018-02-10T07:32:46.893Z,1012.17
2018-02-10T07:33:46.908Z,1012.16
2018-02-10T07:34:46.914Z,1012.14
2018-02-10T07:35:46.932Z,1012.18
2018-02-10T07:36:46.939Z,1012.16
2018-02-10T07:37:46.947Z,1012.19
2018-02-10T07:38:46.960Z,1012.22
2018-02-10T07:39:46.976Z,1012.24
2018-02-10T07:40:46.987Z,1012.21
2018-02-10T07:41:47.003Z,1012.22
2018-02-10T07:42:47.013Z,1012.23
2018-02-10T07:43:47.028Z,1012.25
2018-02-10T07:44:47.038Z,1012.25
2018-02-10T07:45:47.044Z,1012.27
2018-02-10T07:46:47.061Z,1012.22
2018-02-10T07:47:47.072Z,1012.27
2018-02-10T07:48:47.088Z,1012.26
2018-02-10T07:49:47.106Z,1012.3
2018-02-10T07:50:47.110Z,1012.24
2018-02-10T07:51:47.122Z,1012.3
2018-02-10T07:53:47.149Z,1012.3
2018-02-10T07:54:47.161Z,1012.29
2018-02-10T07:55:47.173Z,1012.31
2018-02-10T07:56:47.185Z,1012.27
2018-02-10T07:57:47.207Z,1012.23
2018-02-10T07:58:47.212Z,1012.21
2018-02-10T07:59:47.224Z,1012.24
2018-02-10T08:00:47.232Z,1012.2
2018-02-10T08:01:47.245Z,1012.17
2018-02-10T08:02:47.253Z,1012.22
2018-02-10T08:03:47.273Z,1012.19
2018-02-10T08:04:47.282Z,1012.2
2018-02-10T08:05:47.302Z,1012.21
2018-02-10T08:06:47.311Z,1012.25
2018-02-10T08:07:47.320Z,1012.21
2018-02-10T08:09:47.388Z,1012.23
2018-02-10T08:10:47.351Z,1012.24
2018-02-10T08:11:47.365Z,1012.27
2018-02-10T08:12:47.383Z,1012.26
2018-02-10T08:13:47.398Z,1012.28
2018-02-10T08:14:47.410Z,1012.29
2018-02-10T08:15:47.420Z,1012.29
2018-02-10T08:16:47.430Z,1012.33
2018-02-10T08:17:47.443Z,1012.31
2018-02-10T08:18:47.458Z,1012.34
2018-02-10T08:19:47.462Z,1012.31
2018-02-10T08:20:47.478Z,1012.34
2018-02-10T08:21:47.493Z,1012.35
2018-02-10T08:22:47.506Z,1012.36
2018-02-10T08:23:47.516Z,1012.31
2018-02-10T08:25:47.551Z,1012.32
2018-02-10T08:26:47.555Z,1012.28
2018-02-10T08:27:47.567Z,1012.35
2018-02-10T08:28:47.577Z,1012.3
2018-02-10T08:29:47.592Z,1012.35
2018-02-10T08:30:47.610Z,1012.31
2018-02-10T08:31:47.624Z,1012.33
2018-02-10T08:32:47.630Z,1012.34
2018-02-10T08:33:47.645Z,1012.33
2018-02-10T08:34:47.657Z,1012.32
2018-02-10T08:35:47.667Z,1012.27
2018-02-10T08:36:47.680Z,1012.29
2018-02-10T08:37:47.691Z,1012.3
2018-02-10T08:38:47.703Z,1012.28
2018-02-10T08:39:47.725Z,1012.3
2018-02-10T08:41:47.739Z,1012.33
2018-02-10T08:42:47.750Z,1012.35
2018-02-10T08:43:47.764Z,1012.39
2018-02-10T08:44:47.779Z,1012.36
2018-02-10T08:45:47.794Z,1012.38
2018-02-10T08:46:47.804Z,1012.41
2018-02-10T08:47:47.813Z,1012.37
2018-02-10T08:48:47.828Z,1012.36
2018-02-10T08:49:47.841Z,1012.36
2018-02-10T08:50:47.853Z,1012.38
2018-02-10T08:51:47.872Z,1012.37
2018-02-10T08:52:47.879Z,1012.32
2018-02-10T08:53:47.889Z,1012.34
2018-02-10T08:54:47.908Z,1012.32
2018-02-10T08:56:47.926Z,1012.35
2018-02-10T08:57:47.941Z,1012.3
2018-02-10T08:58:47.953Z,1012.3
2018-02-10T08:59:47.965Z,1012.26
2018-02-10T09:00:47.987Z,1012.26
2018-02-10T09:01:47.993Z,1012.28
2018-02-10T09:02:48.006Z,1012.26
2018-02-10T09:03:48.016Z,1012.27
2018-02-10T09:04:48.032Z,1012.26
2018-02-10T09:05:48.043Z,1012.24
2018-02-10T09:06:48.060Z,1012.22
2018-02-10T09:07:48.073Z,1012.25
2018-02-10T09:08:48.085Z,1012.21
2018-02-10T09:09:48.098Z,1012.21
2018-02-10T09:10:48.109Z,1012.18
2018-02-10T09:11:48.117Z,1012.23
2018-02-10T09:12:48.129Z,1012.22
2018-02-10T09:13:48.149Z,1012.18
2018-02-10T09:14:48.157Z,1012.2
2018-02-10T09:15:48.170Z,1012.18
2018-02-10T09:16:48.182Z,1012.23
2018-02-10T09:17:48.196Z,1012.22
2018-02-10T09:18:48.211Z,1012.25
2018-02-10T09:19:48.224Z,1012.26
2018-02-10T09:20:48.232Z,1012.25
2018-02-10T09:21:48.247Z,1012.3
2018-02-10T09:22:48.258Z,1012.31
2018-02-10T09:23:48.278Z,1012.3
2018-02-10T09:24:48.291Z,1012.3
2018-02-10T09:25:48.300Z,1012.28
2018-02-10T09:26:48.313Z,1012.33
2018-02-10T09:28:48.339Z,1012.28
2018-02-10T09:29:48.346Z,1012.28
2018-02-10T09:30:48.363Z,1012.33
2018-02-10T09:31:48.371Z,1012.26
2018-02-10T09:32:48.386Z,1012.3
2018-02-10T09:33:48.405Z,1012.28
2018-02-10T09:34:48.414Z,1012.28
2018-02-10T09:35:48.429Z,1012.35
2018-02-10T09:36:48.440Z,1012.28
2018-02-10T09:37:48.453Z,1012.3
2018-02-10T09:38:48.465Z,1012.29
2018-02-10T09:39:48.489Z,1012.32
2018-02-10T09:40:48.498Z,1012.29
2018-02-10T09:41:48.502Z,1012.33
2018-02-10T09:42:48.515Z,1012.29
2018-02-10T09:44:48.541Z,1012.33
2018-02-10T09:45:48.558Z,1012.25
2018-02-10T09:46:48.576Z,1012.28
2018-02-10T09:47:48.582Z,1012.22
2018-02-10T09:48:48.594Z,1012.2
2018-02-10T09:49:48.609Z,1012.2
2018-02-10T09:50:48.621Z,1012.17
2018-02-10T09:51:48.643Z,1012.21
2018-02-10T09:52:48.650Z,1012.17
2018-02-10T09:53:48.664Z,1012.18
2018-02-10T09:54:48.678Z,1012.19
2018-02-10T09:55:48.687Z,1012.19
2018-02-10T09:56:48.696Z,1012.18
2018-02-10T09:57:48.714Z,1012.21
2018-02-10T09:58:48.731Z,1012.22
2018-02-10T10:00:48.756Z,1012.17
2018-02-10T10:01:48.767Z,1012.18
2018-02-10T10:02:48.789Z,1012.12
2018-02-10T10:03:48.794Z,1012.11
2018-02-10T10:04:48.806Z,1012.11
2018-02-10T10:05:48.823Z,1012.12
2018-02-10T10:06:48.835Z,1012.05
2018-02-10T10:07:48.850Z,1012.04
2018-02-10T10:08:48.863Z,1012.05
2018-02-10T10:09:48.881Z,1012.01
2018-02-10T10:10:48.883Z,1012
2018-02-10T10:11:48.900Z,1012.04
2018-02-10T10:12:48.911Z,1011.98
2018-02-10T10:13:48.927Z,1012.02
2018-02-10T10:14:48.945Z,1012.03
2018-02-10T10:16:48.974Z,1012.06
2018-02-10T10:17:48.983Z,1012.01
2018-02-10T10:18:48.999Z,1012.01
2018-02-10T10:19:49.006Z,1012.03
2018-02-10T10:20:49.023Z,1012.03
2018-02-10T10:21:49.038Z,1011.99
2018-02-10T10:22:49.056Z,1011.96
2018-02-10T10:23:49.068Z,1011.97
2018-02-10T10:24:49.076Z,1011.99
2018-02-10T10:25:49.088Z,1012.01
2018-02-10T10:26:49.110Z,1012
2018-02-10T10:27:49.120Z,1011.96
2018-02-10T10:28:49.141Z,1012.01
2018-02-10T10:29:49.249Z,1012.03
2018-02-10T10:31:49.179Z,1012
2018-02-10T10:32:49.191Z,1012.03
2018-02-10T10:33:49.206Z,1012.01
2018-02-10T10:34:49.217Z,1011.99
2018-02-10T10:35:49.335Z,1011.98
2018-02-10T10:36:49.243Z,1012.01
2018-02-10T10:37:49.264Z,1011.99
2018-02-10T10:38:49.276Z,1011.99
2018-02-10T10:39:49.292Z,1011.99
2018-02-10T10:40:49.304Z,1012
2018-02-10T10:41:49.317Z,1012
2018-02-10T10:42:49.334Z,1011.96
2018-02-10T10:43:49.360Z,1011.96
2018-02-10T10:44:49.361Z,1012.01
2018-02-10T10:45:49.381Z,1011.98
2018-02-10T10:46:49.395Z,1011.96
2018-02-10T10:47:49.399Z,1011.95
2018-02-10T10:48:49.420Z,1011.93
2018-02-10T10:49:49.434Z,1011.97
2018-02-10T10:50:49.448Z,1011.96
2018-02-10T10:51:49.462Z,1011.97
2018-02-10T10:52:49.474Z,1011.94
2018-02-10T10:53:49.486Z,1011.93
2018-02-10T10:54:49.505Z,1011.91
2018-02-10T10:55:49.521Z,1011.94
2018-02-10T10:56:49.535Z,1011.89
2018-02-10T10:57:49.548Z,1011.9
2018-02-10T10:58:49.560Z,1011.86
2018-02-10T10:59:49.576Z,1011.85
2018-02-10T11:00:49.592Z,1011.89
2018-02-10T11:01:49.602Z,1011.88
2018-02-10T11:03:49.639Z,1011.8
2018-02-10T11:04:49.651Z,1011.8
2018-02-10T11:05:49.661Z,1011.79
2018-02-10T11:06:49.678Z,1011.78
2018-02-10T11:07:49.691Z,1011.79
2018-02-10T11:08:49.713Z,1011.74
2018-02-10T11:09:49.718Z,1011.8
2018-02-10T11:10:49.735Z,1011.73
2018-02-10T11:11:49.751Z,1011.75
2018-02-10T11:12:49.768Z,1011.66
2018-02-10T11:13:49.787Z,1011.69
2018-02-10T11:14:49.795Z,1011.69
2018-02-10T11:15:49.810Z,1011.65
2018-02-10T11:16:49.828Z,1011.69
2018-02-10T11:17:49.845Z,1011.66
2018-02-10T11:19:49.870Z,1011.62
2018-02-10T11:20:49.885Z,1011.64
2018-02-10T11:21:49.898Z,1011.58
2018-02-10T11:22:49.914Z,1011.6
2018-02-10T11:23:49.927Z,1011.58
2018-02-10T11:24:49.940Z,1011.53
2018-02-10T11:25:49.960Z,1011.48
2018-02-10T11:26:49.967Z,1011.47
2018-02-10T11:27:49.988Z,1011.45
2018-02-10T11:28:50.001Z,1011.44
2018-02-10T11:29:50.016Z,1011.4
2018-02-10T11:30:50.028Z,1011.4
2018-02-10T11:31:50.043Z,1011.41
2018-02-10T11:32:50.057Z,1011.41
2018-02-10T11:33:50.110Z,1011.37
2018-02-10T11:35:50.107Z,1011.35
2018-02-10T11:36:50.113Z,1011.33
2018-02-10T11:37:50.129Z,1011.33
2018-02-10T11:38:50.143Z,1011.3
2018-02-10T11:39:50.160Z,1011.26
2018-02-10T11:40:50.181Z,1011.33
2018-02-10T11:41:50.192Z,1011.27
2018-02-10T11:42:50.205Z,1011.26
2018-02-10T11:43:50.222Z,1011.25
2018-02-10T11:44:50.236Z,1011.23
2018-02-10T11:45:50.252Z,1011.21
2018-02-10T11:46:50.261Z,1011.21
2018-02-10T11:47:50.279Z,1011.17
2018-02-10T11:48:50.297Z,1011.15
2018-02-10T11:49:50.314Z,1011.14
2018-02-10T11:51:50.344Z,1011.13
2018-02-10T11:52:50.354Z,1011.12
2018-02-10T11:53:50.376Z,1011.09
2018-02-10T11:54:50.384Z,1011.1
2018-02-10T11:55:50.406Z,1011.1
2018-02-10T11:56:50.416Z,1011.09
2018-02-10T11:57:50.427Z,1011.11
2018-02-10T11:58:50.446Z,1011.14
2018-02-10T11:59:50.462Z,1011.13
2018-02-10T12:00:50.474Z,1011.1
2018-02-10T12:01:50.497Z,1011.09
2018-02-10T12:02:50.501Z,1011.16
2018-02-10T12:03:50.523Z,1011.13
2018-02-10T12:04:50.540Z,1011.09
2018-02-10T12:06:50.571Z,1011.1
2018-02-10T12:07:50.588Z,1011.09
2018-02-10T12:08:50.600Z,1011.02
2018-02-10T12:09:50.611Z,1011.04
2018-02-10T12:10:50.637Z,1011.02
2018-02-10T12:11:50.647Z,1010.97
2018-02-10T12:12:50.659Z,1010.99
2018-02-10T12:13:50.675Z,1011.01
2018-02-10T12:14:50.689Z,1010.96
2018-02-10T12:15:50.707Z,1010.97
2018-02-10T12:16:50.721Z,1010.94
2018-02-10T12:17:50.739Z,1010.94
2018-02-10T12:18:50.754Z,1010.89
2018-02-10T12:19:50.768Z,1010.86
2018-02-10T12:20:50.786Z,1010.79
2018-02-10T12:21:50.803Z,1010.83
2018-02-10T12:22:50.817Z,1010.79
2018-02-10T12:23:50.836Z,1010.78
2018-02-10T12:24:50.845Z,1010.76
2018-02-10T12:25:50.862Z,1010.79
2018-02-10T12:26:50.885Z,1010.77
2018-02-10T12:27:50.898Z,1010.76
2018-02-10T12:28:50.917Z,1010.8
2018-02-10T12:29:50.930Z,1010.78
2018-02-10T12:30:50.944Z,1010.82
2018-02-10T12:31:50.966Z,1010.82
2018-02-10T12:32:50.979Z,1010.77
2018-02-10T12:33:50.993Z,1010.77
2018-02-10T12:34:51.010Z,1010.78
2018-02-10T12:35:51.021Z,1010.78
2018-02-10T12:36:51.041Z,1010.81
2018-02-10T12:38:51.074Z,1010.71
2018-02-10T12:39:51.092Z,1010.71
2018-02-10T12:40:51.104Z,1010.7
2018-02-10T12:41:51.118Z,1010.65
2018-02-10T12:42:51.134Z,1010.68
2018-02-10T12:43:51.156Z,1010.67
2018-02-10T12:44:51.165Z,1010.65
2018-02-10T12:45:51.228Z,1010.63
2018-02-10T12:46:51.200Z,1010.65
2018-02-10T12:47:51.209Z,1010.67